createdAt,value
2018-03-11T00:03:11.000Z,47.7
2018-03-11T00:13:12.000Z,47.6
2018-03-11T00:23:11.000Z,47.6
2018-03-11T00:33:11.000Z,47.5
2018-03-11T00:43:11.000Z,47.4
2018-03-11T00:53:11.000Z,47.4
2018-03-11T01:03:11.000Z,47.2
2018-03-11T01:13:11.000Z,47.1
2018-03-11T01:23:13.000Z,47
2018-03-11T01:33:11.000Z,46.9
2018-03-11T01:43:11.000Z,46.8
2018-03-11T01:53:11.000Z,46.9
2018-03-11T02:03:11.000Z,46.8
2018-03-11T02:13:11.000Z,46.7
2018-03-11T02:23:11.000Z,46.6
2018-03-11T02:33:11.000Z,46.6
2018-03-11T02:43:11.000Z,46.5
2018-03-11T02:53:11.000Z,46.3
2018-03-11T03:03:11.000Z,46.3
2018-03-11T03:13:11.000Z,46.2
2018-03-11T03:23:11.000Z,46.2
2018-03-11T03:33:11.000Z,46.2
2018-03-11T03:43:11.000Z,46.1
2018-03-11T03:53:11.000Z,45.9
2018-03-11T04:03:11.000Z,45.9
2018-03-11T04:13:11.000Z,45.7
2018-03-11T04:23:11.000Z,45.8
2018-03-11T04:33:11.000Z,46.7
2018-03-11T04:43:11.000Z,47.1
2018-03-11T04:53:11.000Z,47.6
2018-03-11T05:03:11.000Z,47.9
2018-03-11T05:13:11.000Z,48.2
2018-03-11T05:23:12.000Z,48.3
2018-03-11T05:33:12.000Z,48.3
2018-03-11T05:43:12.000Z,48.5
2018-03-11T05:53:12.000Z,48.5
2018-03-11T06:03:12.000Z,49.1
2018-03-11T06:13:12.000Z,49.4
2018-03-11T06:23:12.000Z,49.7
2018-03-11T06:33:12.000Z,49.8
2018-03-11T06:43:12.000Z,49.9
2018-03-11T06:53:12.000Z,50.2
2018-03-11T07:03:12.000Z,50.2
2018-03-11T07:13:12.000Z,50.4
2018-03-11T07:23:12.000Z,50.5
2018-03-11T07:33:12.000Z,50.7
2018-03-11T07:43:12.000Z,50.7
2018-03-11T07:53:12.000Z,51
2018-03-11T08:03:12.000Z,51.1
2018-03-11T08:13:12.000Z,50.8
2018-03-11T08:23:12.000Z,50.9
2018-03-11T08:33:12.000Z,51
2018-03-11T08:43:12.000Z,51.3
2018-03-11T08:53:12.000Z,51.4
2018-03-11T09:03:12.000Z,51.4
2018-03-11T09:13:12.000Z,51.4
2018-03-11T09:23:12.000Z,49.7
2018-03-11T09:33:12.000Z,47.2
2018-03-11T09:43:12.000Z,47.6
2018-03-11T09:53:12.000Z,48.1
2018-03-11T10:03:12.000Z,48
2018-03-11T10:13:12.000Z,47.6
2018-03-11T10:23:12.000Z,47.5
2018-03-11T10:33:12.000Z,47.5
2018-03-11T10:43:12.000Z,47.7
2018-03-11T10:53:12.000Z,47.9
2018-03-11T11:03:12.000Z,47.8
2018-03-11T11:13:12.000Z,47.9
2018-03-11T11:23:12.000Z,47.9
2018-03-11T11:33:12.000Z,47.4
2018-03-11T11:43:12.000Z,46.8
2018-03-11T11:53:13.000Z,46.5
2018-03-11T12:03:12.000Z,46
2018-03-11T12:13:12.000Z,46
2018-03-11T12:23:13.000Z,46.5
2018-03-11T12:33:13.000Z,47
2018-03-11T12:43:13.000Z,47
2018-03-11T12:53:13.000Z,47.5
2018-03-11T13:03:13.000Z,49
2018-03-11T13:13:13.000Z,51
2018-03-11T13:23:15.000Z,53.1
2018-03-11T13:33:13.000Z,54.1
2018-03-11T13:43:13.000Z,55.1
2018-03-11T13:53:13.000Z,54.8
2018-03-11T14:03:13.000Z,54.4
2018-03-11T14:13:13.000Z,53.1
2018-03-11T14:23:13.000Z,52.5
2018-03-11T14:33:13.000Z,52.2
2018-03-11T14:43:13.000Z,51.8
2018-03-11T14:53:14.000Z,52.3
2018-03-11T15:03:13.000Z,52.1
2018-03-11T15:13:13.000Z,52.1
2018-03-11T15:23:13.000Z,52.5
2018-03-11T15:33:13.000Z,53.3
2018-03-11T15:43:13.000Z,53.7
2018-03-11T15:53:13.000Z,53.9
2018-03-11T16:03:13.000Z,53.7
2018-03-11T16:13:13.000Z,54.2
2018-03-11T16:23:13.000Z,54.5
2018-03-11T16:33:13.000Z,53.3
2018-03-11T16:43:13.000Z,53.1
2018-03-11T16:53:13.000Z,52.8
2018-03-11T17:03:14.000Z,52.9
2018-03-11T17:13:13.000Z,52.7
2018-03-11T17:23:13.000Z,52.7
2018-03-11T17:33:13.000Z,53.2
2018-03-11T17:43:13.000Z,53.8
2018-03-11T17:53:13.000Z,54.5
2018-03-11T18:03:13.000Z,54.7
2018-03-11T18:13:13.000Z,55
2018-03-11T18:23:14.000Z,55.5
2018-03-11T18:33:17.000Z,56
2018-03-11T18:43:13.000Z,56
2018-03-11T18:53:13.000Z,55.9
2018-03-11T19:03:13.000Z,56.1
2018-03-11T19:13:14.000Z,56.3
2018-03-11T19:23:14.000Z,56.4
2018-03-11T19:33:14.000Z,56.6
2018-03-11T19:43:15.000Z,56.6
2018-03-11T19:53:14.000Z,56.6
2018-03-11T20:03:14.000Z,56.6
2018-03-11T20:13:17.000Z,56.6
2018-03-11T20:23:16.000Z,56.7
2018-03-11T20:33:14.000Z,56.8
2018-03-11T20:43:15.000Z,56.8
2018-03-11T20:53:16.000Z,56.8
2018-03-11T21:03:14.000Z,56.8
2018-03-11T21:23:14.000Z,56.8
2018-03-11T21:33:14.000Z,56.6
2018-03-11T21:43:14.000Z,57
2018-03-11T21:53:14.000Z,48.8
2018-03-11T22:03:14.000Z,48.1
2018-03-11T22:13:14.000Z,48
2018-03-11T22:23:15.000Z,47.9
2018-03-11T22:33:14.000Z,47.9
2018-03-11T22:43:14.000Z,48.4
2018-03-11T22:53:14.000Z,48.5
2018-03-11T23:03:14.000Z,48.8
2018-03-11T23:13:15.000Z,48.7
2018-03-11T23:23:14.000Z,48.4
2018-03-11T23:33:14.000Z,48
2018-03-11T23:43:14.000Z,48.3
2018-03-11T23:53:14.000Z,48.2
